Minneapolis, Minnesota
Traffic Map
Current Weather Conditions
Minneapolis, Minnesota
Overcast
Overcast
36°
Feels Like: 28°
Wind Chill: 28° Ceiling: 8000
Heat Index: 36° Visibility: 10mi
Dew Point: 16° Wind: 12mph
Humidity: 44% Direction: 140° (SE)
Pressure: 30.26in Gusts: 0mph
Raw Report DataKMSP 230553Z 14010KT 10SM OVC080 02/M09 A3026 RMK AO2 SLP256 T00221089 10033 20022 400441061 58012
Traffic Incident Summary
Active as of:
Severity:
Category:
InformationThere was an issue retrieving the traffic information for this location. Please try a different location or try again shortly.
Advertisements
Track Severe Weather on mobile